Time;durP1;ratioP1;P1;durP2;ratioP2;P2;SDS_P1;SDS_P2;PMS_P1;PMS_P2;Temp;Humidity;BMP_temperature;BMP_pressure;BME280_temperature;BME280_humidity;BME280_pressure;Samples;Min_cycle;Max_cycle;Signal;HPM_P1;HPM_P2
2021/04/16 00:02:12;;;;;;;9.43;7.17;;;;;2.70;102366.00;;;;9950982;29;20219;-72
2021/04/16 00:07:15;;;;;;;11.23;7.40;;;;;2.60;102361.00;;;;9951143;29;20231;-72
2021/04/16 00:14:23;;;;;;;15.63;8.40;;;;;2.50;102362.00;;;;9950907;29;20203;-72
2021/04/16 00:20:01;;;;;;;10.73;7.47;;;;;2.40;102345.00;;;;9939898;29;20211;-72
2021/04/16 00:25:40;;;;;;;13.90;8.70;;;;;2.30;102351.00;;;;9939492;29;20203;-72
2021/04/16 00:31:26;;;;;;;12.53;7.67;;;;;2.20;102348.00;;;;9949961;29;20206;-74
2021/04/16 00:36:31;;;;;;;11.77;7.77;;;;;2.10;102348.00;;;;9950983;29;20206;-73
2021/04/16 00:43:51;;;;;;;13.70;7.77;;;;;1.80;102348.00;;;;9950104;29;20206;-74
2021/04/16 00:49:33;;;;;;;14.03;9.27;;;;;1.70;102341.00;;;;9949124;29;20191;-74
2021/04/16 00:55:12;;;;;;;15.73;8.30;;;;;1.50;102343.00;;;;9948894;29;20208;-72
2021/04/16 01:02:34;;;;;;;14.13;9.00;;;;;1.40;102339.00;;;;9950743;29;20687;-74
2021/04/16 01:08:14;;;;;;;14.57;9.00;;;;;1.30;102330.00;;;;9948533;29;20223;-74
2021/04/16 01:13:53;;;;;;;13.13;8.37;;;;;1.20;102331.00;;;;9938253;29;20655;-74
2021/04/16 01:20:47;;;;;;;14.33;7.87;;;;;1.10;102330.00;;;;9945840;29;20684;-74
2021/04/16 01:25:50;;;;;;;15.30;8.63;;;;;1.00;102314.00;;;;9947387;29;20199;-74
2021/04/16 01:31:29;;;;;;;11.33;8.30;;;;;0.90;102326.00;;;;9936855;29;20191;-74
2021/04/16 01:38:49;;;;;;;14.13;8.33;;;;;0.80;102328.00;;;;9948010;29;20222;-74
2021/04/16 01:45:39;;;;;;;14.60;7.83;;;;;0.70;102324.00;;;;9943938;29;20206;-74
2021/04/16 01:51:31;;;;;;;14.97;8.63;;;;;0.70;102335.00;;;;9946933;29;20202;-74
2021/04/16 01:57:19;;;;;;;15.90;8.90;;;;;0.70;102326.00;;;;9936360;29;20215;-74
2021/04/16 02:03:01;;;;;;;14.53;8.70;;;;;0.60;102324.00;;;;9946385;29;20222;-74
2021/04/16 02:08:39;;;;;;;13.50;8.07;;;;;0.50;102327.00;;;;9946506;29;20783;-74
2021/04/16 02:14:24;;;;;;;14.13;9.33;;;;;0.40;102335.00;;;;9936485;29;20211;-74
2021/04/16 02:19:26;;;;;;;14.97;8.73;;;;;0.30;102322.00;;;;9947415;29;20222;-74
2021/04/16 02:24:28;;;;;;;10.97;7.87;;;;;0.20;102323.00;;;;9946509;29;20199;-74
2021/04/16 02:30:24;;;;;;;12.47;7.93;;;;;0.10;102330.00;;;;9935412;29;20226;-74
2021/04/16 02:36:06;;;;;;;11.27;8.50;;;;;0.10;102323.00;;;;9945405;29;20195;-74
2021/04/16 02:43:26;;;;;;;11.27;7.87;;;;;0.00;102330.00;;;;9945163;29;20301;-74
2021/04/16 02:51:04;;;;;;;14.80;8.73;;;;;0.00;102323.00;;;;9946253;29;20205;-74
2021/04/16 02:56:42;;;;;;;14.10;9.47;;;;;-0.10;102316.00;;;;9934012;29;20198;-74
2021/04/16 03:02:24;;;;;;;13.67;8.73;;;;;-0.10;102327.00;;;;9934939;29;20214;-74
2021/04/16 03:08:03;;;;;;;15.03;9.50;;;;;-0.10;102324.00;;;;9923538;29;20252;-74
2021/04/16 03:13:05;;;;;;;13.77;8.80;;;;;-0.20;102320.00;;;;9928773;29;20229;-74
2021/04/16 03:18:46;;;;;;;17.20;9.60;;;;;-0.30;102327.00;;;;9944255;29;20264;-74
2021/04/16 03:26:06;;;;;;;16.73;9.90;;;;;-0.30;102327.00;;;;9927777;29;20828;-74
2021/04/16 03:31:46;;;;;;;17.27;9.63;;;;;-0.40;102324.00;;;;9933384;29;20183;-74
2021/04/16 03:38:55;;;;;;;13.17;9.73;;;;;-0.40;102325.00;;;;9907096;30;20223;-74
2021/04/16 03:44:36;;;;;;;21.87;10.97;;;;;-0.50;102323.00;;;;9907462;29;20312;-74
2021/04/16 03:50:17;;;;;;;17.47;10.33;;;;;-0.50;102328.00;;;;9895922;30;20204;-75
2021/04/16 03:55:58;;;;;;;16.83;10.33;;;;;-0.60;102328.00;;;;9929085;29;20209;-74
2021/04/16 04:01:40;;;;;;;15.80;10.63;;;;;-0.60;102328.00;;;;9933518;29;20231;-74
2021/04/16 04:07:21;;;;;;;15.93;9.83;;;;;-0.70;102324.00;;;;9943415;29;20226;-74
2021/04/16 04:14:42;;;;;;;13.50;9.50;;;;;-0.70;102322.00;;;;9944759;29;20290;-74
2021/04/16 04:20:29;;;;;;;15.27;9.83;;;;;-0.70;102327.00;;;;9943596;29;20239;-74
2021/04/16 04:27:51;;;;;;;17.53;10.03;;;;;-0.80;102327.00;;;;9947154;29;20210;-75
2021/04/16 04:32:54;;;;;;;14.90;10.30;;;;;-0.80;102332.00;;;;9951344;29;20267;-73
2021/04/16 04:38:35;;;;;;;20.67;10.60;;;;;-0.90;102341.00;;;;9939566;29;20210;-73
2021/04/16 04:45:55;;;;;;;19.13;10.73;;;;;-0.90;102332.00;;;;9950690;29;20199;-73
2021/04/16 04:53:17;;;;;;;15.23;10.43;;;;;-0.90;102334.00;;;;9949394;29;20235;-74
2021/04/16 04:58:56;;;;;;;18.37;9.90;;;;;-0.90;102342.00;;;;9938247;29;20237;-74
2021/04/16 05:05:46;;;;;;;16.37;9.83;;;;;-0.90;102347.00;;;;9949831;29;20234;-74
2021/04/16 05:11:27;;;;;;;15.43;10.20;;;;;-0.90;102344.00;;;;9948496;29;20219;-74
2021/04/16 05:17:06;;;;;;;13.63;10.03;;;;;-0.80;102351.00;;;;9937799;29;20203;-74
2021/04/16 05:22:08;;;;;;;17.37;10.63;;;;;-0.60;102348.00;;;;9949397;29;20227;-74
2021/04/16 05:27:47;;;;;;;17.27;10.90;;;;;-0.30;102360.00;;;;9910842;30;20303;-73
2021/04/16 05:35:08;;;;;;;21.80;10.70;;;;;0.20;102358.00;;;;9911610;29;20286;-75
2021/04/16 05:40:46;;;;;;;15.77;11.20;;;;;0.70;102362.00;;;;9899401;30;20220;-75
2021/04/16 05:46:28;;;;;;;15.73;9.87;;;;;1.00;102365.00;;;;9911422;29;20203;-76
2021/04/16 05:52:06;;;;;;;13.73;9.30;;;;;1.20;102362.00;;;;9919922;29;20199;-75
2021/04/16 05:59:14;;;;;;;11.27;7.80;;;;;1.60;102376.00;;;;9924735;29;20227;-75
2021/04/16 06:04:53;;;;;;;12.77;7.53;;;;;1.90;102377.00;;;;9888617;29;20211;-73
2021/04/16 06:12:02;;;;;;;11.87;8.40;;;;;2.40;102381.00;;;;9910404;29;20283;-73
2021/04/16 06:19:10;;;;;;;10.50;7.07;;;;;3.00;102382.00;;;;9939607;29;20226;-75
2021/04/16 06:24:49;;;;;;;8.70;6.20;;;;;3.50;102396.00;;;;9924486;29;20676;-73
2021/04/16 06:30:30;;;;;;;10.37;6.47;;;;;4.30;102392.00;;;;9908828;29;20231;-75
2021/04/16 06:36:11;;;;;;;6.90;5.10;;;;;4.70;102390.00;;;;9897939;30;20260;-75
2021/04/16 06:41:24;;;;;;;6.80;4.83;;;;;5.30;102383.00;;;;9919940;29;20233;-75
2021/04/16 06:46:28;;;;;;;9.07;5.20;;;;;5.80;102377.00;;;;9906048;29;20215;-75
2021/04/16 06:51:33;;;;;;;5.97;4.13;;;;;6.30;102381.00;;;;9892890;30;20283;-73
2021/04/16 06:56:42;;;;;;;6.23;4.00;;;;;6.80;102375.00;;;;9929560;29;20293;-75
2021/04/16 07:01:50;;;;;;;5.70;4.37;;;;;7.10;102363.00;;;;9907139;30;20228;-73
2021/04/16 07:06:55;;;;;;;9.30;5.20;;;;;7.50;102365.00;;;;9922524;29;20224;-73
2021/04/16 07:12:19;;;;;;;5.23;4.27;;;;;7.70;102371.00;;;;9907445;29;20427;-73
2021/04/16 07:17:23;;;;;;;6.97;4.20;;;;;7.90;102366.00;;;;9916497;29;20198;-73
2021/04/16 07:22:28;;;;;;;6.43;3.90;;;;;7.50;102372.00;;;;9943897;29;20253;-73
2021/04/16 07:27:51;;;;;;;9.07;4.70;;;;;6.40;102376.00;;;;9943559;29;20206;-73
2021/04/16 07:32:53;;;;;;;7.30;4.20;;;;;6.50;102381.00;;;;9891212;30;20203;-73
2021/04/16 07:38:05;;;;;;;8.10;4.20;;;;;7.10;102384.00;;;;9921537;29;20238;-73
2021/04/16 07:43:13;;;;;;;6.47;4.40;;;;;7.30;102387.00;;;;9944242;29;20250;-73
2021/04/16 07:48:20;;;;;;;8.27;4.30;;;;;7.50;102397.00;;;;9928271;29;20718;-73
2021/04/16 07:53:26;;;;;;;5.83;4.40;;;;;7.60;102396.00;;;;9943450;29;20297;-73
2021/04/16 07:58:28;;;;;;;8.63;4.33;;;;;7.80;102396.00;;;;9923074;29;20282;-73
2021/04/16 08:03:36;;;;;;;7.70;4.60;;;;;8.40;102386.00;;;;9932057;29;20272;-73
2021/04/16 08:08:45;;;;;;;10.77;4.57;;;;;9.20;102402.00;;;;9936116;29;20222;-73
2021/04/16 08:13:46;;;;;;;7.50;4.33;;;;;9.70;102388.00;;;;9950853;29;20198;-74
2021/04/16 08:19:13;;;;;;;8.77;4.37;;;;;9.80;102387.00;;;;9950562;29;20273;-74
2021/04/16 08:24:27;;;;;;;9.77;5.80;;;;;10.20;102383.00;;;;9950082;29;20209;-74
2021/04/16 08:29:50;;;;;;;7.60;4.13;;;;;11.20;102382.00;;;;9934993;29;20203;-74
2021/04/16 08:35:19;;;;;;;6.50;4.20;;;;;12.20;102382.00;;;;9949604;29;20239;-74
2021/04/16 08:40:50;;;;;;;6.70;4.33;;;;;12.70;102363.00;;;;9925469;29;20234;-74
2021/04/16 08:45:52;;;;;;;5.53;4.40;;;;;12.30;102378.00;;;;9916225;29;20215;-74
2021/04/16 08:50:59;;;;;;;9.67;5.20;;;;;11.70;102381.00;;;;9913244;29;20203;-74
2021/04/16 08:56:15;;;;;;;6.13;4.70;;;;;11.60;102381.00;;;;9931478;29;20199;-74
2021/04/16 09:01:32;;;;;;;6.33;4.57;;;;;11.80;102370.00;;;;9949108;29;20211;-74
2021/04/16 09:06:46;;;;;;;5.77;4.23;;;;;12.40;102366.00;;;;9933668;29;20262;-74
2021/04/16 09:11:48;;;;;;;5.30;4.53;;;;;12.70;102368.00;;;;9932659;29;20256;-74
2021/04/16 09:16:53;;;;;;;7.27;4.53;;;;;13.00;102369.00;;;;9931488;29;20203;-74
2021/04/16 09:22:01;;;;;;;5.13;4.27;;;;;13.70;102372.00;;;;9947644;29;20743;-74
2021/04/16 09:27:03;;;;;;;7.17;4.43;;;;;14.10;102365.00;;;;9925176;29;20203;-75
2021/04/16 09:32:29;;;;;;;6.63;4.43;;;;;14.30;102372.00;;;;9929318;29;20276;-74
2021/04/16 09:37:33;;;;;;;6.43;4.40;;;;;14.40;102365.00;;;;9937356;29;20199;-74
2021/04/16 09:42:51;;;;;;;6.60;4.70;;;;;14.70;102362.00;;;;9921806;29;20222;-74
2021/04/16 09:47:55;;;;;;;5.10;3.93;;;;;14.40;102357.00;;;;9930237;29;20704;-75
2021/04/16 09:53:13;;;;;;;5.87;4.43;;;;;14.60;102358.00;;;;9936250;29;20288;-75
2021/04/16 09:58:34;;;;;;;5.67;3.93;;;;;15.00;102350.00;;;;9933838;29;20824;-74
2021/04/16 10:03:43;;;;;;;4.77;4.00;;;;;15.00;102345.00;;;;9930288;29;20251;-75
2021/04/16 10:08:45;;;;;;;5.87;4.17;;;;;15.20;102338.00;;;;9919337;29;20227;-75
2021/04/16 10:13:47;;;;;;;4.17;3.37;;;;;15.60;102332.00;;;;9932945;29;20257;-75
2021/04/16 10:18:48;;;;;;;4.87;3.53;;;;;15.60;102326.00;;;;9933448;29;20212;-75
2021/04/16 10:25:16;;;;;;;3.80;3.37;;;;;16.00;102314.00;;;;9924205;29;20202;-75
2021/04/16 10:47:37;;;;;;;5.17;2.70;;;;;16.20;102293.00;;;;9915397;29;20219;-75
2021/04/16 12:40:35;;;;;;;3.57;2.70;;;;;16.40;102215.00;;;;9942696;29;20246;-75
2021/04/16 12:45:55;;;;;;;2.97;2.40;;;;;16.50;102221.00;;;;10535441;27;21030;-74
2021/04/16 12:50:57;;;;;;;3.03;2.67;;;;;16.70;102223.00;;;;10499764;28;20189;-75
2021/04/16 12:55:59;;;;;;;3.03;2.50;;;;;16.70;102224.00;;;;10525696;28;20205;-76
2021/04/16 13:01:06;;;;;;;4.83;2.80;;;;;17.80;102209.00;;;;10505538;28;20189;-75
2021/04/16 13:06:27;;;;;;;2.77;2.27;;;;;19.30;102214.00;;;;10514115;28;20599;-75
2021/04/16 13:11:29;;;;;;;3.23;2.73;;;;;18.20;102206.00;;;;10489849;28;20200;-75
2021/04/16 13:16:32;;;;;;;3.73;2.50;;;;;18.00;102207.00;;;;10448568;28;20198;-75
2021/04/16 13:21:41;;;;;;;2.83;2.60;;;;;17.80;102208.00;;;;10465499;28;20217;-75
2021/04/16 13:26:43;;;;;;;4.37;2.93;;;;;17.20;102208.00;;;;10448075;28;20205;-75
2021/04/16 13:31:45;;;;;;;3.40;3.00;;;;;17.10;102204.00;;;;10489161;28;20182;-75
2021/04/16 13:36:47;;;;;;;3.07;2.60;;;;;17.00;102199.00;;;;10469607;28;20194;-75
2021/04/16 13:41:49;;;;;;;3.83;2.83;;;;;17.00;102188.00;;;;10477981;28;20301;-75
2021/04/16 13:46:52;;;;;;;6.53;2.50;;;;;17.70;102174.00;;;;10484198;28;20224;-75
2021/04/16 13:51:54;;;;;;;3.50;2.77;;;;;22.70;102170.00;;;;10505337;28;20190;-75
2021/04/16 13:56:56;;;;;;;4.55;2.58;;;;;25.10;102166.00;;;;10452327;28;20219;-75
2021/04/16 14:02:00;;;;;;;3.38;2.40;;;;;20.80;102177.00;;;;10447541;28;20758;-75
2021/04/16 14:07:07;;;;;;;3.40;2.67;;;;;18.70;102169.00;;;;10446649;28;20827;-75
2021/04/16 14:12:12;;;;;;;3.30;2.60;;;;;17.60;102163.00;;;;10401800;28;20191;-76
2021/04/16 14:17:21;;;;;;;3.33;2.60;;;;;17.20;102160.00;;;;10454263;28;20232;-75
2021/04/16 14:22:34;;;;;;;4.10;2.40;;;;;16.70;102157.00;;;;10459457;28;20242;-75
2021/04/16 14:27:35;;;;;;;3.03;2.10;;;;;18.70;102133.00;;;;10443197;28;20214;-75
2021/04/16 14:32:37;;;;;;;5.70;2.83;;;;;19.00;102129.00;;;;10459080;28;20236;-75
2021/04/16 14:37:43;;;;;;;4.73;2.80;;;;;18.60;102143.00;;;;10442911;28;20213;-75
2021/04/16 14:42:45;;;;;;;5.85;2.55;;;;;25.20;102110.00;;;;10440163;28;20268;-76
2021/04/16 14:47:46;;;;;;;3.88;2.28;;;;;21.50;102134.00;;;;10434340;28;20237;-75
2021/04/16 14:52:49;;;;;;;3.05;2.75;;;;;19.50;102128.00;;;;10417060;28;20189;-76
2021/04/16 14:57:51;;;;;;;3.63;2.80;;;;;19.50;102126.00;;;;10429721;28;20207;-75
2021/04/16 15:02:52;;;;;;;4.18;2.50;;;;;22.00;102089.00;;;;10418309;28;20202;-75
2021/04/16 15:08:01;;;;;;;5.18;3.05;;;;;20.90;102122.00;;;;10432293;28;20226;-76
2021/04/16 15:13:14;;;;;;;7.50;3.25;;;;;18.70;102115.00;;;;10448460;28;20214;-75
2021/04/16 15:18:17;;;;;;;3.10;2.73;;;;;17.10;102121.00;;;;10417127;28;20198;-76
2021/04/16 15:23:19;;;;;;;4.67;2.77;;;;;16.20;102128.00;;;;10433322;28;20608;-75
2021/04/16 15:28:41;;;;;;;3.90;2.87;;;;;15.70;102094.00;;;;10478033;28;20252;-75
2021/04/16 15:49:28;;;;;;;4.60;3.00;;;;;16.70;102097.00;;;;10456498;28;20194;-75
2021/04/16 15:54:30;;;;;;;5.47;2.67;;;;;16.10;102096.00;;;;10465374;28;20197;-75
2021/04/16 15:59:51;;;;;;;6.37;2.70;;;;;15.40;102088.00;;;;10434188;28;20206;-75
2021/04/16 16:04:55;;;;;;;4.07;3.20;;;;;14.60;102090.00;;;;10415941;28;20222;-75
2021/04/16 16:09:57;;;;;;;3.53;2.70;;;;;15.40;102075.00;;;;10414776;28;20187;-75
2021/04/16 16:15:03;;;;;;;5.37;3.10;;;;;16.40;102071.00;;;;10436986;28;20194;-75
2021/04/16 16:20:07;;;;;;;3.30;2.73;;;;;15.60;102072.00;;;;10454872;28;20662;-75
2021/04/16 16:25:11;;;;;;;4.23;2.87;;;;;15.20;102073.00;;;;10469514;28;20250;-75
2021/04/16 16:30:22;;;;;;;3.90;3.20;;;;;14.70;102076.00;;;;10496757;28;20193;-75
2021/04/16 16:35:34;;;;;;;5.43;3.00;;;;;14.40;102079.00;;;;10497268;28;20173;-75
2021/04/16 16:40:38;;;;;;;5.90;3.07;;;;;13.90;102077.00;;;;10496446;28;20235;-75
2021/04/16 16:45:41;;;;;;;3.47;3.07;;;;;13.60;102078.00;;;;10422259;28;20269;-75
2021/04/16 16:50:45;;;;;;;5.70;3.07;;;;;13.30;102073.00;;;;10433099;28;20195;-75
2021/04/16 16:55:49;;;;;;;6.50;3.30;;;;;13.10;102076.00;;;;10475050;28;20196;-75
2021/04/16 17:00:58;;;;;;;3.57;2.97;;;;;12.90;102076.00;;;;10496250;28;20217;-75
2021/04/16 17:06:00;;;;;;;4.67;2.40;;;;;13.10;102070.00;;;;10479556;28;20229;-75
2021/04/16 17:11:04;;;;;;;4.73;3.10;;;;;13.30;102067.00;;;;10457026;28;20190;-75
2021/04/16 17:16:09;;;;;;;5.90;3.13;;;;;13.20;102063.00;;;;10446974;28;20597;-75
2021/04/16 17:21:14;;;;;;;5.17;3.10;;;;;12.80;102063.00;;;;10436958;28;20201;-75
2021/04/16 17:26:20;;;;;;;4.37;2.97;;;;;12.60;102063.00;;;;10461804;28;20288;-75
2021/04/16 17:31:22;;;;;;;4.53;3.03;;;;;12.40;102059.00;;;;10502421;28;20280;-75
2021/04/16 17:36:24;;;;;;;4.23;2.90;;;;;12.30;102066.00;;;;10503971;28;20533;-75
2021/04/16 17:41:34;;;;;;;5.20;3.33;;;;;12.10;102065.00;;;;10502699;28;20635;-75
2021/04/16 17:46:36;;;;;;;3.13;2.83;;;;;12.00;102060.00;;;;10504079;28;20196;-75
2021/04/16 17:51:38;;;;;;;6.50;3.33;;;;;11.80;102063.00;;;;10486198;28;20269;-75
2021/04/16 17:56:41;;;;;;;6.90;2.70;;;;;11.50;102067.00;;;;10469599;28;20241;-75
2021/04/16 18:01:45;;;;;;;6.23;3.47;;;;;11.30;102074.00;;;;10485849;28;20221;-75
2021/04/16 18:06:50;;;;;;;5.93;3.30;;;;;11.10;102076.00;;;;10485832;28;20231;-75
2021/04/16 18:11:53;;;;;;;5.87;3.50;;;;;10.90;102075.00;;;;10462985;28;20538;-75
2021/04/16 18:16:55;;;;;;;6.47;3.63;;;;;10.70;102079.00;;;;10420433;28;20631;-75
2021/04/16 18:21:59;;;;;;;8.77;3.60;;;;;10.50;102078.00;;;;10449146;28;20259;-75
2021/04/16 18:27:11;;;;;;;4.93;3.57;;;;;10.30;102073.00;;;;10461170;28;20197;-75
2021/04/16 18:32:15;;;;;;;6.50;3.60;;;;;10.00;102079.00;;;;10452224;28;20194;-74
2021/04/16 18:37:23;;;;;;;6.57;3.73;;;;;9.80;102083.00;;;;10460692;28;20236;-75
2021/04/16 18:42:27;;;;;;;6.90;3.60;;;;;9.60;102091.00;;;;10459693;28;20210;-75
2021/04/16 18:47:30;;;;;;;6.07;3.27;;;;;9.50;102091.00;;;;10459235;28;20199;-75
2021/04/16 18:52:46;;;;;;;7.13;3.83;;;;;9.40;102091.00;;;;10441990;28;20708;-74
2021/04/16 18:57:47;;;;;;;7.27;3.70;;;;;9.30;102094.00;;;;10441402;28;20190;-75
2021/04/16 19:02:49;;;;;;;6.00;3.80;;;;;9.20;102112.00;;;;10474207;28;20312;-75
2021/04/16 19:07:51;;;;;;;6.83;4.07;;;;;9.00;102111.00;;;;10457918;28;20214;-75
2021/04/16 19:12:54;;;;;;;5.23;3.50;;;;;8.90;102127.00;;;;10458399;28;20190;-74
2021/04/16 19:17:57;;;;;;;8.77;3.67;;;;;8.80;102119.00;;;;10457375;28;20204;-75
2021/04/16 19:23:02;;;;;;;7.57;3.67;;;;;8.70;102128.00;;;;10457830;28;20723;-75
2021/04/16 19:28:07;;;;;;;4.67;3.27;;;;;8.60;102139.00;;;;10474561;28;20206;-74
2021/04/16 19:33:10;;;;;;;6.23;4.07;;;;;8.50;102144.00;;;;10440915;28;20271;-74
2021/04/16 19:38:16;;;;;;;8.70;3.83;;;;;8.40;102145.00;;;;10457305;28;20198;-74
2021/04/16 19:43:21;;;;;;;8.30;3.73;;;;;8.30;102144.00;;;;10439834;28;20222;-74
2021/04/16 20:19:36;;;;;;;6.67;3.80;;;;;7.70;102155.00;;;;10456541;28;20548;-74
2021/04/16 20:27:12;;;;;;;5.00;3.77;;;;;7.60;102153.00;;;;10455908;28;20641;-76
2021/04/16 20:32:19;;;;;;;11.83;4.37;;;;;7.60;102156.00;;;;10454953;28;20641;-76
2021/04/16 20:37:23;;;;;;;11.80;4.00;;;;;7.50;102161.00;;;;10455611;28;20589;-76
2021/04/16 20:42:29;;;;;;;5.17;3.70;;;;;7.40;102158.00;;;;10438448;28;20210;-76
2021/04/16 20:47:33;;;;;;;8.43;3.80;;;;;7.30;102152.00;;;;10455301;28;20213;-76
2021/04/16 20:52:37;;;;;;;8.07;4.40;;;;;7.20;102141.00;;;;10454971;28;20205;-76
2021/04/16 20:57:40;;;;;;;5.60;3.90;;;;;7.10;102143.00;;;;10471605;28;20206;-75
2021/04/16 21:03:04;;;;;;;5.30;3.73;;;;;7.00;102148.00;;;;10438393;28;20247;-75
2021/04/16 21:08:22;;;;;;;6.37;3.50;;;;;6.90;102138.00;;;;10463321;28;20213;-76
2021/04/16 21:13:26;;;;;;;8.83;4.03;;;;;6.80;102139.00;;;;10462173;28;20656;-76
2021/04/16 21:18:33;;;;;;;10.10;3.97;;;;;6.70;102140.00;;;;10446210;28;20216;-74
2021/04/16 21:23:39;;;;;;;6.93;3.93;;;;;6.60;102140.00;;;;10479255;28;20210;-76
2021/04/16 21:28:41;;;;;;;5.50;3.67;;;;;6.50;102140.00;;;;10461667;28;20190;-76
2021/04/16 21:33:44;;;;;;;8.43;4.13;;;;;6.50;102146.00;;;;10463021;28;20545;-76
2021/04/16 21:38:46;;;;;;;7.53;3.50;;;;;6.40;102147.00;;;;10462144;28;20201;-76
2021/04/16 21:43:50;;;;;;;4.43;3.10;;;;;6.30;102148.00;;;;10478271;28;20265;-76
2021/04/16 21:49:05;;;;;;;8.17;3.53;;;;;6.30;102153.00;;;;10477773;28;20190;-76
2021/04/16 21:54:18;;;;;;;5.40;3.63;;;;;6.20;102157.00;;;;10460609;28;20205;-76
2021/04/16 21:59:21;;;;;;;7.03;3.53;;;;;6.10;102157.00;;;;10461379;28;20584;-76
2021/04/16 22:04:25;;;;;;;8.60;3.87;;;;;6.10;102160.00;;;;10460163;28;20669;-76
2021/04/16 22:09:40;;;;;;;5.83;3.70;;;;;6.00;102159.00;;;;10477436;28;21012;-76
2021/04/16 22:14:51;;;;;;;7.03;4.00;;;;;5.90;102161.00;;;;10493682;28;20361;-76
2021/04/16 22:19:54;;;;;;;7.27;4.33;;;;;5.80;102155.00;;;;10459914;28;20198;-76
2021/04/16 22:25:00;;;;;;;8.50;4.27;;;;;5.70;102162.00;;;;10460205;28;20218;-76
2021/04/16 22:30:14;;;;;;;7.13;4.07;;;;;5.70;102159.00;;;;10476723;28;20190;-76
2021/04/16 22:35:34;;;;;;;10.03;3.60;;;;;5.70;102168.00;;;;10459227;28;20178;-76
2021/04/16 22:40:38;;;;;;;8.60;4.43;;;;;5.60;102168.00;;;;10459125;28;20198;-76
2021/04/16 22:45:42;;;;;;;9.30;4.30;;;;;5.60;102155.00;;;;10458894;28;20682;-76
2021/04/16 22:50:46;;;;;;;7.00;4.17;;;;;5.60;102167.00;;;;10442586;28;20248;-76
2021/04/16 22:55:48;;;;;;;11.00;3.97;;;;;5.50;102163.00;;;;10460122;28;20198;-76
2021/04/16 23:00:56;;;;;;;13.30;4.00;;;;;5.50;102162.00;;;;10442405;28;20553;-76
2021/04/16 23:06:03;;;;;;;7.37;4.33;;;;;5.40;102170.00;;;;10475196;28;20218;-76
2021/04/16 23:11:17;;;;;;;9.53;4.50;;;;;5.40;102162.00;;;;10458124;28;20285;-76
2021/04/16 23:16:23;;;;;;;8.13;3.80;;;;;5.30;102167.00;;;;10458209;28;20281;-76
2021/04/16 23:21:49;;;;;;;11.27;4.07;;;;;5.30;102177.00;;;;10458288;28;20210;-76
2021/04/16 23:26:57;;;;;;;8.13;4.20;;;;;5.20;102176.00;;;;10469127;28;20206;-76
2021/04/16 23:32:06;;;;;;;7.37;4.00;;;;;5.10;102173.00;;;;10456671;28;20194;-76
2021/04/16 23:37:16;;;;;;;8.77;3.80;;;;;5.10;102162.00;;;;10441034;28;20194;-76
2021/04/16 23:42:24;;;;;;;10.17;4.20;;;;;5.00;102168.00;;;;10456846;28;20222;-76
2021/04/16 23:47:26;;;;;;;4.70;3.67;;;;;5.00;102172.00;;;;10439845;28;20207;-76
2021/04/16 23:52:31;;;;;;;6.47;3.90;;;;;4.90;102165.00;;;;10416731;28;20183;-76
2021/04/16 23:57:33;;;;;;;7.13;3.30;;;;;4.90;102166.00;;;;10482828;28;20206;-76
